sensor_id;sensor_type;location;lat;lon;timestamp;P1;durP1;ratioP1;P2;durP2;ratioP2
11805;SDS011;5960;42.602;23.482;2022-09-13T00:01:27;1.95;;;1.65;;
11805;SDS011;5960;42.602;23.482;2022-09-13T00:03:55;2.20;;;1.63;;
11805;SDS011;5960;42.602;23.482;2022-09-13T00:06:22;1.48;;;1.35;;
11805;SDS011;5960;42.602;23.482;2022-09-13T00:08:49;1.65;;;1.48;;
11805;SDS011;5960;42.602;23.482;2022-09-13T00:11:17;2.70;;;1.70;;
11805;SDS011;5960;42.602;23.482;2022-09-13T00:13:45;1.95;;;1.60;;
11805;SDS011;5960;42.602;23.482;2022-09-13T00:16:14;2.28;;;1.50;;
11805;SDS011;5960;42.602;23.482;2022-09-13T00:18:42;2.83;;;1.52;;
11805;SDS011;5960;42.602;23.482;2022-09-13T00:21:10;1.85;;;1.50;;
11805;SDS011;5960;42.602;23.482;2022-09-13T00:23:38;1.50;;;1.40;;
11805;SDS011;5960;42.602;23.482;2022-09-13T00:26:06;1.60;;;1.45;;
11805;SDS011;5960;42.602;23.482;2022-09-13T00:28:34;2.15;;;1.98;;
11805;SDS011;5960;42.602;23.482;2022-09-13T00:31:02;2.03;;;1.50;;
11805;SDS011;5960;42.602;23.482;2022-09-13T00:33:30;1.42;;;1.27;;
11805;SDS011;5960;42.602;23.482;2022-09-13T00:35:57;2.10;;;1.85;;
11805;SDS011;5960;42.602;23.482;2022-09-13T00:38:25;2.75;;;1.75;;
11805;SDS011;5960;42.602;23.482;2022-09-13T00:40:52;3.38;;;1.73;;
11805;SDS011;5960;42.602;23.482;2022-09-13T00:43:19;2.20;;;1.42;;
11805;SDS011;5960;42.602;23.482;2022-09-13T00:46:05;2.70;;;1.55;;
11805;SDS011;5960;42.602;23.482;2022-09-13T00:48:32;2.50;;;1.65;;
11805;SDS011;5960;42.602;23.482;2022-09-13T00:51:00;1.80;;;1.50;;
11805;SDS011;5960;42.602;23.482;2022-09-13T00:53:30;2.45;;;2.03;;
11805;SDS011;5960;42.602;23.482;2022-09-13T00:56:00;2.70;;;1.92;;
11805;SDS011;5960;42.602;23.482;2022-09-13T00:58:38;2.28;;;1.80;;
11805;SDS011;5960;42.602;23.482;2022-09-13T01:01:07;2.00;;;1.50;;
11805;SDS011;5960;42.602;23.482;2022-09-13T01:03:36;2.20;;;1.48;;
11805;SDS011;5960;42.602;23.482;2022-09-13T01:06:05;2.17;;;1.38;;
11805;SDS011;5960;42.602;23.482;2022-09-13T01:08:36;2.38;;;1.55;;
11805;SDS011;5960;42.602;23.482;2022-09-13T01:11:07;1.77;;;1.65;;
11805;SDS011;5960;42.602;23.482;2022-09-13T01:13:42;1.75;;;1.30;;
11805;SDS011;5960;42.602;23.482;2022-09-13T01:16:10;3.45;;;1.88;;
11805;SDS011;5960;42.602;23.482;2022-09-13T01:18:36;3.28;;;1.50;;
11805;SDS011;5960;42.602;23.482;2022-09-13T01:21:09;2.30;;;1.73;;
11805;SDS011;5960;42.602;23.482;2022-09-13T01:24:11;1.83;;;1.42;;
11805;SDS011;5960;42.602;23.482;2022-09-13T01:33:00;2.03;;;1.55;;
11805;SDS011;5960;42.602;23.482;2022-09-13T01:35:52;1.75;;;1.65;;
11805;SDS011;5960;42.602;23.482;2022-09-13T01:38:36;2.15;;;1.80;;
11805;SDS011;5960;42.602;23.482;2022-09-13T01:41:12;2.25;;;1.75;;
11805;SDS011;5960;42.602;23.482;2022-09-13T01:43:52;6.65;;;1.48;;
11805;SDS011;5960;42.602;23.482;2022-09-13T01:46:27;1.55;;;1.45;;
11805;SDS011;5960;42.602;23.482;2022-09-13T01:48:58;2.15;;;1.67;;
11805;SDS011;5960;42.602;23.482;2022-09-13T01:51:35;2.20;;;1.60;;
11805;SDS011;5960;42.602;23.482;2022-09-13T01:54:10;2.17;;;1.55;;
11805;SDS011;5960;42.602;23.482;2022-09-13T01:56:46;1.83;;;1.55;;
11805;SDS011;5960;42.602;23.482;2022-09-13T01:59:19;2.03;;;1.45;;
11805;SDS011;5960;42.602;23.482;2022-09-13T02:01:56;1.65;;;1.38;;
11805;SDS011;5960;42.602;23.482;2022-09-13T02:04:28;2.42;;;1.90;;
11805;SDS011;5960;42.602;23.482;2022-09-13T02:07:02;3.35;;;1.88;;
11805;SDS011;5960;42.602;23.482;2022-09-13T02:09:39;2.50;;;2.25;;
11805;SDS011;5960;42.602;23.482;2022-09-13T02:12:10;1.58;;;1.48;;
11805;SDS011;5960;42.602;23.482;2022-09-13T02:14:42;2.58;;;1.58;;
11805;SDS011;5960;42.602;23.482;2022-09-13T02:17:15;3.00;;;2.35;;
11805;SDS011;5960;42.602;23.482;2022-09-13T02:19:47;2.70;;;1.85;;
11805;SDS011;5960;42.602;23.482;2022-09-13T02:22:20;1.63;;;1.40;;
11805;SDS011;5960;42.602;23.482;2022-09-13T02:24:52;2.13;;;1.60;;
11805;SDS011;5960;42.602;23.482;2022-09-13T02:27:23;2.17;;;1.55;;
11805;SDS011;5960;42.602;23.482;2022-09-13T02:29:54;2.47;;;1.42;;
11805;SDS011;5960;42.602;23.482;2022-09-13T02:32:28;1.48;;;1.35;;
11805;SDS011;5960;42.602;23.482;2022-09-13T02:34:58;2.72;;;1.77;;
11805;SDS011;5960;42.602;23.482;2022-09-13T02:37:28;1.63;;;1.52;;
11805;SDS011;5960;42.602;23.482;2022-09-13T02:40:01;1.63;;;1.52;;
11805;SDS011;5960;42.602;23.482;2022-09-13T02:42:32;4.00;;;1.50;;
11805;SDS011;5960;42.602;23.482;2022-09-13T02:45:02;2.05;;;1.50;;
11805;SDS011;5960;42.602;23.482;2022-09-13T02:47:37;2.22;;;1.63;;
11805;SDS011;5960;42.602;23.482;2022-09-13T02:50:24;5.65;;;2.08;;
11805;SDS011;5960;42.602;23.482;2022-09-13T02:53:00;3.22;;;1.52;;
11805;SDS011;5960;42.602;23.482;2022-09-13T02:55:35;1.48;;;1.38;;
11805;SDS011;5960;42.602;23.482;2022-09-13T02:58:08;2.22;;;1.50;;
11805;SDS011;5960;42.602;23.482;2022-09-13T03:00:39;2.40;;;1.38;;
11805;SDS011;5960;42.602;23.482;2022-09-13T03:03:08;1.90;;;1.55;;
11805;SDS011;5960;42.602;23.482;2022-09-13T03:05:38;2.70;;;1.65;;
11805;SDS011;5960;42.602;23.482;2022-09-13T03:08:05;2.05;;;1.73;;
11805;SDS011;5960;42.602;23.482;2022-09-13T03:10:35;2.10;;;1.60;;
11805;SDS011;5960;42.602;23.482;2022-09-13T03:13:16;1.80;;;1.20;;
11805;SDS011;5960;42.602;23.482;2022-09-13T03:16:01;3.90;;;1.90;;
11805;SDS011;5960;42.602;23.482;2022-09-13T03:18:39;2.75;;;1.88;;
11805;SDS011;5960;42.602;23.482;2022-09-13T03:21:18;2.10;;;1.83;;
11805;SDS011;5960;42.602;23.482;2022-09-13T03:23:59;1.67;;;1.55;;
11805;SDS011;5960;42.602;23.482;2022-09-13T03:26:41;2.63;;;1.90;;
11805;SDS011;5960;42.602;23.482;2022-09-13T03:29:23;3.47;;;1.50;;
11805;SDS011;5960;42.602;23.482;2022-09-13T03:32:03;3.55;;;1.80;;
11805;SDS011;5960;42.602;23.482;2022-09-13T03:34:41;3.00;;;1.92;;
11805;SDS011;5960;42.602;23.482;2022-09-13T03:37:16;3.33;;;2.50;;
11805;SDS011;5960;42.602;23.482;2022-09-13T03:39:51;3.50;;;2.95;;
11805;SDS011;5960;42.602;23.482;2022-09-13T03:42:23;3.33;;;2.17;;
11805;SDS011;5960;42.602;23.482;2022-09-13T03:44:56;1.73;;;1.50;;
11805;SDS011;5960;42.602;23.482;2022-09-13T03:47:25;3.70;;;1.80;;
11805;SDS011;5960;42.602;23.482;2022-09-13T03:49:58;2.58;;;2.03;;
11805;SDS011;5960;42.602;23.482;2022-09-13T03:52:25;3.55;;;1.70;;
11805;SDS011;5960;42.602;23.482;2022-09-13T03:54:52;3.22;;;1.70;;
11805;SDS011;5960;42.602;23.482;2022-09-13T03:57:20;2.63;;;1.52;;
11805;SDS011;5960;42.602;23.482;2022-09-13T03:59:48;3.08;;;1.88;;
11805;SDS011;5960;42.602;23.482;2022-09-13T04:02:16;1.67;;;1.50;;
11805;SDS011;5960;42.602;23.482;2022-09-13T04:04:43;2.47;;;1.33;;
11805;SDS011;5960;42.602;23.482;2022-09-13T04:07:13;3.10;;;2.05;;
11805;SDS011;5960;42.602;23.482;2022-09-13T04:09:44;2.40;;;1.75;;
11805;SDS011;5960;42.602;23.482;2022-09-13T04:12:11;3.53;;;1.92;;
11805;SDS011;5960;42.602;23.482;2022-09-13T04:14:38;1.73;;;1.33;;
11805;SDS011;5960;42.602;23.482;2022-09-13T04:17:04;2.22;;;1.50;;
11805;SDS011;5960;42.602;23.482;2022-09-13T04:19:31;1.88;;;1.67;;
11805;SDS011;5960;42.602;23.482;2022-09-13T04:21:58;1.75;;;1.65;;
11805;SDS011;5960;42.602;23.482;2022-09-13T04:24:27;1.45;;;1.35;;
11805;SDS011;5960;42.602;23.482;2022-09-13T04:26:55;1.33;;;1.20;;
11805;SDS011;5960;42.602;23.482;2022-09-13T04:29:23;1.50;;;1.33;;
11805;SDS011;5960;42.602;23.482;2022-09-13T04:31:51;1.85;;;1.30;;
11805;SDS011;5960;42.602;23.482;2022-09-13T04:34:19;2.88;;;1.80;;
11805;SDS011;5960;42.602;23.482;2022-09-13T04:36:47;1.90;;;1.60;;
11805;SDS011;5960;42.602;23.482;2022-09-13T04:39:15;2.58;;;1.70;;
11805;SDS011;5960;42.602;23.482;2022-09-13T04:41:43;1.23;;;1.10;;
11805;SDS011;5960;42.602;23.482;2022-09-13T04:44:13;2.05;;;1.70;;
11805;SDS011;5960;42.602;23.482;2022-09-13T04:46:40;1.40;;;1.23;;
11805;SDS011;5960;42.602;23.482;2022-09-13T04:49:08;1.60;;;1.27;;
11805;SDS011;5960;42.602;23.482;2022-09-13T04:51:35;1.35;;;1.10;;
11805;SDS011;5960;42.602;23.482;2022-09-13T04:54:02;5.95;;;1.65;;
11805;SDS011;5960;42.602;23.482;2022-09-13T04:56:29;2.05;;;1.42;;
11805;SDS011;5960;42.602;23.482;2022-09-13T04:58:57;1.50;;;1.40;;
11805;SDS011;5960;42.602;23.482;2022-09-13T05:01:24;2.05;;;1.52;;
11805;SDS011;5960;42.602;23.482;2022-09-13T05:03:51;2.03;;;1.20;;
11805;SDS011;5960;42.602;23.482;2022-09-13T05:06:18;1.63;;;1.50;;
11805;SDS011;5960;42.602;23.482;2022-09-13T05:08:48;4.25;;;2.20;;
11805;SDS011;5960;42.602;23.482;2022-09-13T05:11:16;2.90;;;2.08;;
11805;SDS011;5960;42.602;23.482;2022-09-13T05:13:43;3.97;;;1.65;;
11805;SDS011;5960;42.602;23.482;2022-09-13T05:16:14;3.25;;;1.45;;
11805;SDS011;5960;42.602;23.482;2022-09-13T05:18:41;3.75;;;2.40;;
11805;SDS011;5960;42.602;23.482;2022-09-13T05:21:07;2.80;;;1.77;;
11805;SDS011;5960;42.602;23.482;2022-09-13T05:23:34;3.92;;;1.33;;
11805;SDS011;5960;42.602;23.482;2022-09-13T05:26:02;1.70;;;1.60;;
11805;SDS011;5960;42.602;23.482;2022-09-13T05:28:31;2.45;;;1.83;;
11805;SDS011;5960;42.602;23.482;2022-09-13T05:31:00;2.17;;;1.33;;
11805;SDS011;5960;42.602;23.482;2022-09-13T05:33:30;1.63;;;1.23;;
11805;SDS011;5960;42.602;23.482;2022-09-13T05:35:58;2.65;;;1.70;;
11805;SDS011;5960;42.602;23.482;2022-09-13T05:38:25;1.83;;;1.40;;
11805;SDS011;5960;42.602;23.482;2022-09-13T05:40:53;2.60;;;1.73;;
11805;SDS011;5960;42.602;23.482;2022-09-13T05:43:21;2.45;;;1.70;;
11805;SDS011;5960;42.602;23.482;2022-09-13T05:45:47;2.47;;;1.92;;
11805;SDS011;5960;42.602;23.482;2022-09-13T05:48:14;1.77;;;1.65;;
11805;SDS011;5960;42.602;23.482;2022-09-13T05:50:43;2.53;;;1.90;;
11805;SDS011;5960;42.602;23.482;2022-09-13T05:53:09;1.67;;;1.55;;
11805;SDS011;5960;42.602;23.482;2022-09-13T05:55:36;2.33;;;1.90;;
11805;SDS011;5960;42.602;23.482;2022-09-13T05:58:03;1.52;;;1.35;;
11805;SDS011;5960;42.602;23.482;2022-09-13T06:00:30;2.63;;;2.17;;
11805;SDS011;5960;42.602;23.482;2022-09-13T06:02:57;2.13;;;1.65;;
11805;SDS011;5960;42.602;23.482;2022-09-13T06:05:24;2.67;;;1.63;;
11805;SDS011;5960;42.602;23.482;2022-09-13T06:07:52;2.92;;;2.22;;
11805;SDS011;5960;42.602;23.482;2022-09-13T06:10:19;3.03;;;1.75;;
11805;SDS011;5960;42.602;23.482;2022-09-13T06:12:46;4.72;;;2.33;;
11805;SDS011;5960;42.602;23.482;2022-09-13T06:15:15;2.42;;;1.77;;
11805;SDS011;5960;42.602;23.482;2022-09-13T06:17:42;4.03;;;2.90;;
11805;SDS011;5960;42.602;23.482;2022-09-13T06:20:09;3.15;;;2.67;;
11805;SDS011;5960;42.602;23.482;2022-09-13T06:22:35;5.80;;;3.10;;
11805;SDS011;5960;42.602;23.482;2022-09-13T06:25:04;5.00;;;2.75;;
11805;SDS011;5960;42.602;23.482;2022-09-13T06:27:31;3.85;;;2.92;;
11805;SDS011;5960;42.602;23.482;2022-09-13T06:29:58;4.55;;;3.05;;
11805;SDS011;5960;42.602;23.482;2022-09-13T06:32:25;3.13;;;2.80;;
11805;SDS011;5960;42.602;23.482;2022-09-13T06:34:51;4.07;;;2.40;;
11805;SDS011;5960;42.602;23.482;2022-09-13T06:37:18;3.33;;;2.60;;
11805;SDS011;5960;42.602;23.482;2022-09-13T06:39:46;4.45;;;2.83;;
11805;SDS011;5960;42.602;23.482;2022-09-13T06:42:14;4.60;;;3.08;;
11805;SDS011;5960;42.602;23.482;2022-09-13T06:44:40;3.55;;;2.85;;
11805;SDS011;5960;42.602;23.482;2022-09-13T06:47:07;4.20;;;2.97;;
11805;SDS011;5960;42.602;23.482;2022-09-13T06:49:35;3.65;;;2.72;;
11805;SDS011;5960;42.602;23.482;2022-09-13T06:52:01;2.55;;;2.25;;
11805;SDS011;5960;42.602;23.482;2022-09-13T06:54:28;2.38;;;2.13;;
11805;SDS011;5960;42.602;23.482;2022-09-13T06:56:55;2.10;;;1.77;;
11805;SDS011;5960;42.602;23.482;2022-09-13T06:59:23;1.27;;;1.17;;
11805;SDS011;5960;42.602;23.482;2022-09-13T07:01:49;1.75;;;1.25;;
11805;SDS011;5960;42.602;23.482;2022-09-13T07:04:16;1.58;;;1.40;;
11805;SDS011;5960;42.602;23.482;2022-09-13T07:06:44;1.40;;;1.30;;
11805;SDS011;5960;42.602;23.482;2022-09-13T07:09:12;2.15;;;1.45;;
11805;SDS011;5960;42.602;23.482;2022-09-13T07:11:41;1.63;;;1.27;;
11805;SDS011;5960;42.602;23.482;2022-09-13T07:14:10;1.35;;;1.25;;
11805;SDS011;5960;42.602;23.482;2022-09-13T07:16:40;1.30;;;1.13;;
11805;SDS011;5960;42.602;23.482;2022-09-13T07:19:11;1.48;;;1.38;;
11805;SDS011;5960;42.602;23.482;2022-09-13T07:21:39;2.75;;;1.40;;
11805;SDS011;5960;42.602;23.482;2022-09-13T07:24:06;1.67;;;1.40;;
11805;SDS011;5960;42.602;23.482;2022-09-13T07:26:33;1.90;;;1.70;;
11805;SDS011;5960;42.602;23.482;2022-09-13T07:29:00;1.33;;;1.23;;
11805;SDS011;5960;42.602;23.482;2022-09-13T07:31:29;1.27;;;1.17;;
11805;SDS011;5960;42.602;23.482;2022-09-13T07:33:59;1.50;;;1.17;;
11805;SDS011;5960;42.602;23.482;2022-09-13T07:36:27;2.95;;;1.38;;
11805;SDS011;5960;42.602;23.482;2022-09-13T07:38:55;1.85;;;1.58;;
11805;SDS011;5960;42.602;23.482;2022-09-13T07:41:24;1.85;;;1.50;;
11805;SDS011;5960;42.602;23.482;2022-09-13T07:43:51;1.58;;;1.40;;
11805;SDS011;5960;42.602;23.482;2022-09-13T07:46:19;1.50;;;1.20;;
11805;SDS011;5960;42.602;23.482;2022-09-13T07:48:47;4.45;;;1.70;;
11805;SDS011;5960;42.602;23.482;2022-09-13T07:51:15;1.52;;;1.42;;
11805;SDS011;5960;42.602;23.482;2022-09-13T07:53:44;2.65;;;1.20;;
11805;SDS011;5960;42.602;23.482;2022-09-13T07:56:12;1.90;;;1.40;;
11805;SDS011;5960;42.602;23.482;2022-09-13T07:58:40;2.47;;;1.58;;
11805;SDS011;5960;42.602;23.482;2022-09-13T08:01:08;1.20;;;1.10;;
11805;SDS011;5960;42.602;23.482;2022-09-13T08:03:38;1.42;;;1.17;;
11805;SDS011;5960;42.602;23.482;2022-09-13T08:06:05;1.42;;;1.08;;
11805;SDS011;5960;42.602;23.482;2022-09-13T08:08:34;1.15;;;1.05;;
11805;SDS011;5960;42.602;23.482;2022-09-13T08:11:02;1.17;;;1.08;;
11805;SDS011;5960;42.602;23.482;2022-09-13T08:13:31;1.38;;;1.20;;
11805;SDS011;5960;42.602;23.482;2022-09-13T08:15:59;1.85;;;1.40;;
11805;SDS011;5960;42.602;23.482;2022-09-13T08:18:27;1.65;;;1.20;;
11805;SDS011;5960;42.602;23.482;2022-09-13T08:20:54;1.70;;;1.48;;
11805;SDS011;5960;42.602;23.482;2022-09-13T08:23:22;2.05;;;1.40;;
11805;SDS011;5960;42.602;23.482;2022-09-13T08:25:50;1.45;;;1.20;;
11805;SDS011;5960;42.602;23.482;2022-09-13T08:28:17;1.20;;;1.10;;
11805;SDS011;5960;42.602;23.482;2022-09-13T08:30:46;1.17;;;1.08;;
11805;SDS011;5960;42.602;23.482;2022-09-13T08:33:14;1.48;;;1.38;;
11805;SDS011;5960;42.602;23.482;2022-09-13T08:35:48;2.10;;;1.30;;
11805;SDS011;5960;42.602;23.482;2022-09-13T08:38:15;1.70;;;1.60;;
11805;SDS011;5960;42.602;23.482;2022-09-13T08:40:42;1.27;;;1.17;;
11805;SDS011;5960;42.602;23.482;2022-09-13T08:43:16;1.10;;;1.00;;
11805;SDS011;5960;42.602;23.482;2022-09-13T08:45:51;1.20;;;1.10;;
11805;SDS011;5960;42.602;23.482;2022-09-13T08:48:27;1.70;;;1.25;;
11805;SDS011;5960;42.602;23.482;2022-09-13T08:50:59;1.13;;;1.00;;
11805;SDS011;5960;42.602;23.482;2022-09-13T08:53:29;1.27;;;1.17;;
11805;SDS011;5960;42.602;23.482;2022-09-13T08:55:59;1.30;;;1.20;;
11805;SDS011;5960;42.602;23.482;2022-09-13T08:58:38;1.38;;;1.27;;
11805;SDS011;5960;42.602;23.482;2022-09-13T09:01:19;1.55;;;1.45;;
11805;SDS011;5960;42.602;23.482;2022-09-13T09:03:56;2.42;;;1.00;;
11805;SDS011;5960;42.602;23.482;2022-09-13T09:06:29;1.13;;;0.98;;
11805;SDS011;5960;42.602;23.482;2022-09-13T09:08:58;1.13;;;1.13;;
11805;SDS011;5960;42.602;23.482;2022-09-13T09:11:30;1.38;;;1.20;;
11805;SDS011;5960;42.602;23.482;2022-09-13T09:14:06;1.40;;;1.30;;
11805;SDS011;5960;42.602;23.482;2022-09-13T09:16:41;2.95;;;1.10;;
11805;SDS011;5960;42.602;23.482;2022-09-13T09:19:16;1.40;;;1.27;;
11805;SDS011;5960;42.602;23.482;2022-09-13T09:21:48;1.08;;;0.85;;
11805;SDS011;5960;42.602;23.482;2022-09-13T09:24:17;1.60;;;1.00;;
11805;SDS011;5960;42.602;23.482;2022-09-13T09:26:47;1.25;;;1.13;;
11805;SDS011;5960;42.602;23.482;2022-09-13T09:29:19;1.67;;;1.27;;
11805;SDS011;5960;42.602;23.482;2022-09-13T09:31:53;1.95;;;1.23;;
11805;SDS011;5960;42.602;23.482;2022-09-13T09:34:35;5.68;;;1.20;;
11805;SDS011;5960;42.602;23.482;2022-09-13T09:37:16;1.23;;;1.13;;
11805;SDS011;5960;42.602;23.482;2022-09-13T09:39:46;1.50;;;1.20;;
11805;SDS011;5960;42.602;23.482;2022-09-13T09:42:14;1.80;;;0.88;;
11805;SDS011;5960;42.602;23.482;2022-09-13T09:44:45;1.25;;;1.15;;
11805;SDS011;5960;42.602;23.482;2022-09-13T09:47:17;1.48;;;0.90;;
11805;SDS011;5960;42.602;23.482;2022-09-13T09:49:46;1.33;;;1.00;;
11805;SDS011;5960;42.602;23.482;2022-09-13T09:52:36;1.13;;;1.05;;
11805;SDS011;5960;42.602;23.482;2022-09-13T09:55:11;1.17;;;1.00;;
11805;SDS011;5960;42.602;23.482;2022-09-13T09:57:52;0.82;;;0.70;;
11805;SDS011;5960;42.602;23.482;2022-09-13T10:00:23;1.27;;;1.10;;
11805;SDS011;5960;42.602;23.482;2022-09-13T10:02:51;1.00;;;1.00;;
11805;SDS011;5960;42.602;23.482;2022-09-13T10:05:21;1.90;;;1.15;;
11805;SDS011;5960;42.602;23.482;2022-09-13T10:07:54;1.73;;;1.10;;
11805;SDS011;5960;42.602;23.482;2022-09-13T10:10:25;1.88;;;1.10;;
11805;SDS011;5960;42.602;23.482;2022-09-13T10:12:58;1.67;;;1.40;;
11805;SDS011;5960;42.602;23.482;2022-09-13T10:15:28;1.35;;;1.15;;
11805;SDS011;5960;42.602;23.482;2022-09-13T10:18:05;1.25;;;1.13;;
11805;SDS011;5960;42.602;23.482;2022-09-13T10:20:40;1.10;;;0.98;;
11805;SDS011;5960;42.602;23.482;2022-09-13T10:23:18;1.42;;;1.33;;
11805;SDS011;5960;42.602;23.482;2022-09-13T10:25:56;0.82;;;0.70;;
11805;SDS011;5960;42.602;23.482;2022-09-13T10:28:26;1.13;;;0.90;;
11805;SDS011;5960;42.602;23.482;2022-09-13T10:30:56;4.25;;;1.10;;
11805;SDS011;5960;42.602;23.482;2022-09-13T10:33:27;1.23;;;1.13;;
11805;SDS011;5960;42.602;23.482;2022-09-13T10:35:57;1.10;;;0.95;;
11805;SDS011;5960;42.602;23.482;2022-09-13T10:38:28;2.00;;;1.10;;
11805;SDS011;5960;42.602;23.482;2022-09-13T10:40:57;1.15;;;1.05;;
11805;SDS011;5960;42.602;23.482;2022-09-13T10:43:27;0.82;;;0.82;;
11805;SDS011;5960;42.602;23.482;2022-09-13T10:45:57;1.30;;;1.20;;
11805;SDS011;5960;42.602;23.482;2022-09-13T10:48:27;1.00;;;0.90;;
11805;SDS011;5960;42.602;23.482;2022-09-13T10:50:59;0.95;;;0.93;;
11805;SDS011;5960;42.602;23.482;2022-09-13T10:53:32;1.15;;;0.93;;
11805;SDS011;5960;42.602;23.482;2022-09-13T10:56:01;0.90;;;0.80;;
11805;SDS011;5960;42.602;23.482;2022-09-13T10:58:28;1.83;;;1.30;;
11805;SDS011;5960;42.602;23.482;2022-09-13T11:04:03;1.35;;;1.15;;
11805;SDS011;5960;42.602;23.482;2022-09-13T11:06:55;1.33;;;1.00;;
11805;SDS011;5960;42.602;23.482;2022-09-13T11:09:35;2.10;;;1.02;;
11805;SDS011;5960;42.602;23.482;2022-09-13T11:12:10;3.28;;;1.38;;
11805;SDS011;5960;42.602;23.482;2022-09-13T11:14:47;1.20;;;0.90;;
11805;SDS011;5960;42.602;23.482;2022-09-13T11:17:27;0.95;;;0.85;;
11805;SDS011;5960;42.602;23.482;2022-09-13T11:20:17;1.05;;;0.93;;
11805;SDS011;5960;42.602;23.482;2022-09-13T11:23:04;1.50;;;1.05;;
11805;SDS011;5960;42.602;23.482;2022-09-13T11:26:02;1.02;;;0.93;;
11805;SDS011;5960;42.602;23.482;2022-09-13T11:28:53;2.03;;;1.15;;
11805;SDS011;5960;42.602;23.482;2022-09-13T11:31:31;1.98;;;1.20;;
11805;SDS011;5960;42.602;23.482;2022-09-13T11:37:04;1.55;;;1.20;;
11805;SDS011;5960;42.602;23.482;2022-09-13T11:39:44;2.72;;;1.60;;
11805;SDS011;5960;42.602;23.482;2022-09-13T11:42:24;2.85;;;1.10;;
11805;SDS011;5960;42.602;23.482;2022-09-13T11:45:17;2.00;;;1.30;;
11805;SDS011;5960;42.602;23.482;2022-09-13T11:47:48;1.20;;;1.10;;
11805;SDS011;5960;42.602;23.482;2022-09-13T11:50:35;1.40;;;1.20;;
11805;SDS011;5960;42.602;23.482;2022-09-13T11:56:00;0.98;;;0.88;;
11805;SDS011;5960;42.602;23.482;2022-09-13T11:58:31;3.15;;;1.38;;
11805;SDS011;5960;42.602;23.482;2022-09-13T12:01:03;1.10;;;1.00;;
11805;SDS011;5960;42.602;23.482;2022-09-13T12:03:36;0.93;;;0.93;;
11805;SDS011;5960;42.602;23.482;2022-09-13T12:06:10;1.30;;;1.20;;
11805;SDS011;5960;42.602;23.482;2022-09-13T12:08:41;3.45;;;1.10;;
11805;SDS011;5960;42.602;23.482;2022-09-13T12:11:12;1.30;;;1.20;;
11805;SDS011;5960;42.602;23.482;2022-09-13T12:13:44;1.10;;;1.00;;
11805;SDS011;5960;42.602;23.482;2022-09-13T12:16:15;1.15;;;0.93;;
11805;SDS011;5960;42.602;23.482;2022-09-13T12:18:47;2.45;;;1.27;;
11805;SDS011;5960;42.602;23.482;2022-09-13T12:21:19;1.23;;;1.13;;
11805;SDS011;5960;42.602;23.482;2022-09-13T12:23:49;0.93;;;0.90;;
11805;SDS011;5960;42.602;23.482;2022-09-13T12:26:20;1.38;;;1.13;;
11805;SDS011;5960;42.602;23.482;2022-09-13T12:28:52;0.80;;;0.80;;
11805;SDS011;5960;42.602;23.482;2022-09-13T12:31:21;1.15;;;1.05;;
11805;SDS011;5960;42.602;23.482;2022-09-13T12:33:50;1.42;;;1.20;;
11805;SDS011;5960;42.602;23.482;2022-09-13T12:36:22;1.30;;;1.20;;
11805;SDS011;5960;42.602;23.482;2022-09-13T12:39:26;1.90;;;1.27;;
11805;SDS011;5960;42.602;23.482;2022-09-13T12:42:10;1.52;;;1.13;;
11805;SDS011;5960;42.602;23.482;2022-09-13T12:44:57;1.38;;;1.23;;
11805;SDS011;5960;42.602;23.482;2022-09-13T12:50:37;1.30;;;1.15;;
11805;SDS011;5960;42.602;23.482;2022-09-13T12:56:27;1.10;;;1.00;;
11805;SDS011;5960;42.602;23.482;2022-09-13T12:59:18;1.20;;;1.10;;
11805;SDS011;5960;42.602;23.482;2022-09-13T13:01:59;1.10;;;1.00;;
11805;SDS011;5960;42.602;23.482;2022-09-13T13:04:29;0.82;;;0.82;;
11805;SDS011;5960;42.602;23.482;2022-09-13T13:07:01;2.85;;;0.93;;
11805;SDS011;5960;42.602;23.482;2022-09-13T13:09:35;1.20;;;1.10;;
11805;SDS011;5960;42.602;23.482;2022-09-13T13:12:05;0.85;;;0.85;;
11805;SDS011;5960;42.602;23.482;2022-09-13T13:14:43;0.90;;;0.90;;
11805;SDS011;5960;42.602;23.482;2022-09-13T13:17:34;1.15;;;0.82;;
11805;SDS011;5960;42.602;23.482;2022-09-13T13:26:07;1.00;;;0.90;;
11805;SDS011;5960;42.602;23.482;2022-09-13T13:28:53;1.60;;;1.02;;
11805;SDS011;5960;42.602;23.482;2022-09-13T13:31:38;1.00;;;0.90;;
11805;SDS011;5960;42.602;23.482;2022-09-13T13:37:31;1.13;;;0.70;;
11805;SDS011;5960;42.602;23.482;2022-09-13T13:45:57;1.55;;;1.05;;
11805;SDS011;5960;42.602;23.482;2022-09-13T13:48:48;1.00;;;0.90;;
11805;SDS011;5960;42.602;23.482;2022-09-13T13:51:16;1.13;;;1.02;;
11805;SDS011;5960;42.602;23.482;2022-09-13T13:53:46;1.10;;;1.00;;
11805;SDS011;5960;42.602;23.482;2022-09-13T13:56:20;0.80;;;0.80;;
11805;SDS011;5960;42.602;23.482;2022-09-13T13:58:53;1.10;;;1.00;;
11805;SDS011;5960;42.602;23.482;2022-09-13T14:01:23;0.90;;;0.90;;
11805;SDS011;5960;42.602;23.482;2022-09-13T14:04:04;1.10;;;0.98;;
11805;SDS011;5960;42.602;23.482;2022-09-13T14:06:52;1.20;;;1.10;;
11805;SDS011;5960;42.602;23.482;2022-09-13T14:09:27;1.55;;;1.23;;
11805;SDS011;5960;42.602;23.482;2022-09-13T14:12:12;0.80;;;0.80;;
11805;SDS011;5960;42.602;23.482;2022-09-13T14:14:54;1.23;;;1.13;;
11805;SDS011;5960;42.602;23.482;2022-09-13T14:20:34;0.82;;;0.82;;
11805;SDS011;5960;42.602;23.482;2022-09-13T14:23:10;1.20;;;1.10;;
11805;SDS011;5960;42.602;23.482;2022-09-13T14:25:41;0.95;;;0.95;;
11805;SDS011;5960;42.602;23.482;2022-09-13T14:28:11;1.25;;;1.15;;
11805;SDS011;5960;42.602;23.482;2022-09-13T14:30:43;1.88;;;1.10;;
11805;SDS011;5960;42.602;23.482;2022-09-13T14:33:17;2.08;;;1.40;;
11805;SDS011;5960;42.602;23.482;2022-09-13T14:35:56;1.35;;;1.25;;
11805;SDS011;5960;42.602;23.482;2022-09-13T14:38:25;1.10;;;1.10;;
11805;SDS011;5960;42.602;23.482;2022-09-13T14:40:58;1.40;;;1.30;;
11805;SDS011;5960;42.602;23.482;2022-09-13T14:43:27;0.80;;;0.80;;
11805;SDS011;5960;42.602;23.482;2022-09-13T14:45:57;1.65;;;1.05;;
11805;SDS011;5960;42.602;23.482;2022-09-13T14:48:30;2.60;;;1.40;;
11805;SDS011;5960;42.602;23.482;2022-09-13T14:51:02;1.23;;;1.13;;
11805;SDS011;5960;42.602;23.482;2022-09-13T14:53:33;1.30;;;1.20;;
11805;SDS011;5960;42.602;23.482;2022-09-13T14:56:01;1.40;;;1.13;;
11805;SDS011;5960;42.602;23.482;2022-09-13T14:58:32;1.65;;;1.20;;
11805;SDS011;5960;42.602;23.482;2022-09-13T15:01:07;1.45;;;1.10;;
11805;SDS011;5960;42.602;23.482;2022-09-13T15:03:36;1.20;;;1.10;;
11805;SDS011;5960;42.602;23.482;2022-09-13T15:06:06;1.13;;;1.02;;
11805;SDS011;5960;42.602;23.482;2022-09-13T15:08:46;1.55;;;1.20;;
11805;SDS011;5960;42.602;23.482;2022-09-13T15:11:14;1.58;;;1.10;;
11805;SDS011;5960;42.602;23.482;2022-09-13T15:13:59;1.30;;;1.20;;
11805;SDS011;5960;42.602;23.482;2022-09-13T15:16:46;1.73;;;1.58;;
11805;SDS011;5960;42.602;23.482;2022-09-13T15:19:14;1.30;;;1.02;;
11805;SDS011;5960;42.602;23.482;2022-09-13T15:21:42;1.30;;;1.20;;
11805;SDS011;5960;42.602;23.482;2022-09-13T15:24:14;1.33;;;1.20;;
11805;SDS011;5960;42.602;23.482;2022-09-13T15:27:02;1.25;;;1.15;;
11805;SDS011;5960;42.602;23.482;2022-09-13T15:29:30;1.27;;;1.17;;
11805;SDS011;5960;42.602;23.482;2022-09-13T15:32:00;1.50;;;1.40;;
11805;SDS011;5960;42.602;23.482;2022-09-13T15:34:27;1.60;;;1.45;;
11805;SDS011;5960;42.602;23.482;2022-09-13T15:37:01;1.10;;;1.00;;
11805;SDS011;5960;42.602;23.482;2022-09-13T15:39:41;1.83;;;1.33;;
11805;SDS011;5960;42.602;23.482;2022-09-13T15:42:08;1.25;;;1.15;;
11805;SDS011;5960;42.602;23.482;2022-09-13T15:44:35;2.65;;;1.52;;
11805;SDS011;5960;42.602;23.482;2022-09-13T15:47:07;1.40;;;1.30;;
11805;SDS011;5960;42.602;23.482;2022-09-13T15:49:36;1.50;;;1.40;;
11805;SDS011;5960;42.602;23.482;2022-09-13T15:52:05;1.40;;;1.30;;
11805;SDS011;5960;42.602;23.482;2022-09-13T15:54:33;1.50;;;1.40;;
11805;SDS011;5960;42.602;23.482;2022-09-13T15:57:02;1.30;;;1.20;;